Altura, MN

10:37 PM CST on November 22, 2014 (GMT -0600)
Altura | Change Station
CLOSE
Current Station
Personal Weather Station
Location: Altura, MN
Elevation: 1165 ft
Nearby Weather Stations
Active Advisory: Special Statement Active Notice: Public Information Statement

Elev 1165 ft 44.07 °N, 91.94 °W | Updated 4 seconds ago

Fog
Fog
45.9 °F
Feels Like 43 °F
N
5.4
Wind Variable Wind from SSE
Gusts 10.7 mph

Today
High -- | Low -- °F
--% Chance of Precip.
Yesterday
High -- | Low -- °F
Precip. -- in
7:12 AM 4:35 PM
New Moon, 1% visible
Pressure 29.62 in
Visibility 2.5 miles
Clouds Overcast 700 ft
Windchill 43 °F
Dew Point 43 °F
Humidity 91%
Rainfall 0.00 in
Snow Depth Not available.
UV 0 out of 12
Pollen .10 out of 12
Air Quality Not available.
Flu Activity Not available.
METAR KONA 230414Z AUTO 13004KT 2 1/2SM BR OVC007 05/04 A2962 RMK AO2

More Conditions Fewer Conditions

Pressure 29.62 in
Visibility 2.5 miles
Clouds Overcast 700 ft
Windchill 43 °F
Dew Point 43 °F
Humidity 91%
Rainfall 0.00 in
Snow Depth Not available.
UV 0 out of 12
Pollen .10 out of 12
Air Quality Not available.
Flu Activity Not available.
METAR KONA 230414Z AUTO 13004KT 2 1/2SM BR OVC007 05/04 A2962 RMK AO2

More Conditions Fewer Conditions

10-Day Weather Forecast

Almanac

Astronomy

Nov. 22, 2014 Rise Set
Actual Time
Civil Twilight
Nautical Twilight
Astronomical Twilight
Moon
Length of Visible Light
Length of Day
Tomorrow will be .
, % of the Moon is Illuminated

Today's Extremes

State Highs State Lows

Community

WunderPhotos

Upload Photos

1,773,002 photos uploaded!

WunderBlogs® & News

Nearby

Air Quality

  Air Quality AQ Index Pollutant
Not available.

Snow Depth

Station Depth Elevation

Earthquake Activity

City Distance Mag. Time & Date
Minimum magnitude displayed is 2.5.

Coastal Water Temperatures

Place Temperature

Nearby Weather Stations